KAPA/APA METAR and TAF weather

Enter ICAO airport designator
Station Type Date Time Source
KAPA METAR 2020/03/31 13:53 UTC NOAA

KAPA 311353Z 00000KT 10SM FEW080 FEW130 BKN220 06/M07 A3006 RMK AO2 SLP168 T00561067


Station Type Date Time Source
KAPA Decoded METAR 2020/03/31 13:53 UTC NOAA

DENVER CENTENNIAL AIRPORT, CO, United States (KAPA) 39-34N 104-51W 1775M
Mar 31, 2020 - 09:53 AM EDT / 2020.03.31 1353 UTC
Wind: Calm:0
Visibility: 10 mile(s):0
Sky conditions: mostly cloudy
Temperature: 42.1 F (5.6 C)
Dew Point: 19.9 F (-6.7 C)
Relative Humidity: 40%
Pressure (altimeter): 30.06 in. Hg (1017 hPa)
ob: KAPA 311353Z 00000KT 10SM FEW080 FEW130 BKN220 06/M07 A3006 RMK AO2 SLP168 T00561067
cycle: 14

Station Type Date Time Source
KAPA TAF 2020/03/31 12:22 UTC NOAA

TAF KAPA 311120Z 3112/0112 15008KT P6SM FEW220
FM311700 24014G21KT P6SM FEW080 SCT220
FM010200 22008KT P6SM FEW220
FM010500 18010KT P6SM FEW220

Example: see airport list